Terminal Aerodrome Forecast
Issued by NWS

Home | Current Version | Previous Version | Text Only | Print | Product List | Glossary Off
Versions: 1 2 3 4 5 6 7 8 9 10 11 12 13 14 15 16

000
FTUS44 KTSA 221720
TAFFYV
TAF
KFYV 221720Z 2218/2318 VRB04KT P6SM VCSH BKN009
     FM222000 34009KT P6SM FEW010
     FM230100 00000KT P6SM SKC
     FM231500 22007KT P6SM SKC=

USA.gov is the U.S. government's official web portal to all federal, state and local government web resources and services.